Terminal Aerodrome Forecast
Issued by NWS

Home | Current Version | Previous Version | Text Only | Print | Product List | Glossary On
Versions: 1 2 3 4 5 6 7 8 9 10 11 12 13 14 15 16 17 18 19 20
000
FTAK31 PANC 171957 AAA
TAFADU
TAF AMD
PADU 171957Z 1720/1818 04010G20KT 6SM -SHSN BKN040
     FM172300 36010G18KT P6SM -SHSN SCT035
     FM180200 02008KT P6SM VCSH SCT025 OVC040
     FM181600 13009KT P6SM FEW250=

USA.gov is the U.S. government's official web portal to all federal, state and local government web resources and services.